createdAt,value
2018-11-05T00:02:14.155Z,41.10
2018-11-05T00:04:42.422Z,42.10
2018-11-05T00:07:10.638Z,41.87
2018-11-05T00:09:38.831Z,41.87
2018-11-05T00:12:07.311Z,43.03
2018-11-05T00:14:35.539Z,42.43
2018-11-05T00:17:03.875Z,42.37
2018-11-05T00:19:32.076Z,43.87
2018-11-05T00:22:00.332Z,44.00
2018-11-05T00:24:28.582Z,42.77
2018-11-05T00:26:56.859Z,43.47
2018-11-05T00:29:25.103Z,46.37
2018-11-05T00:31:53.325Z,43.97
2018-11-05T00:34:21.625Z,43.97
2018-11-05T00:36:49.857Z,45.10
2018-11-05T00:39:18.061Z,43.70
2018-11-05T00:41:46.316Z,43.33
2018-11-05T00:44:14.511Z,44.90
2018-11-05T00:46:42.752Z,46.73
2018-11-05T00:49:10.965Z,44.77
2018-11-05T00:51:39.203Z,46.53
2018-11-05T00:54:07.408Z,44.90
2018-11-05T00:56:35.647Z,45.57
2018-11-05T00:59:03.863Z,45.57
2018-11-05T01:01:32.110Z,45.67
2018-11-05T01:04:00.324Z,46.83
2018-11-05T01:06:28.548Z,45.87
2018-11-05T01:08:56.756Z,46.80
2018-11-05T01:11:24.983Z,45.27
2018-11-05T01:13:53.185Z,46.23
2018-11-05T01:16:21.487Z,46.13
2018-11-05T01:18:49.706Z,47.00
2018-11-05T01:21:17.914Z,47.70
2018-11-05T01:23:46.142Z,47.03
2018-11-05T01:26:14.350Z,47.07
2018-11-05T01:28:42.567Z,46.73
2018-11-05T01:31:10.799Z,47.27
2018-11-05T01:33:39.050Z,46.10
2018-11-05T01:36:07.258Z,47.70
2018-11-05T01:38:35.478Z,47.37
2018-11-05T01:41:03.699Z,48.80
2018-11-05T01:43:31.947Z,47.23
2018-11-05T01:46:00.155Z,47.87
2018-11-05T01:48:28.436Z,46.03
2018-11-05T01:50:56.639Z,47.10
2018-11-05T01:53:24.882Z,46.00
2018-11-05T01:55:53.086Z,48.50
2018-11-05T01:58:21.308Z,47.60
2018-11-05T02:00:49.499Z,48.03
2018-11-05T02:03:17.728Z,49.40
2018-11-05T02:05:45.974Z,47.87
2018-11-05T02:08:14.200Z,47.60
2018-11-05T02:10:42.392Z,46.37
2018-11-05T02:13:10.674Z,48.73
2018-11-05T02:15:38.855Z,48.23
2018-11-05T02:18:07.126Z,47.40
2018-11-05T02:20:35.347Z,47.43
2018-11-05T02:23:03.634Z,48.23
2018-11-05T02:25:31.847Z,48.13
2018-11-05T02:28:00.071Z,46.73
2018-11-05T02:30:28.360Z,49.53
2018-11-05T02:32:56.648Z,49.97
2018-11-05T02:35:24.871Z,47.80
2018-11-05T02:37:53.139Z,47.87
2018-11-05T02:40:21.627Z,49.37
2018-11-05T02:42:50.336Z,48.47
2018-11-05T02:45:19.595Z,49.97
2018-11-05T02:47:47.804Z,49.97
2018-11-05T02:50:16.567Z,48.33
2018-11-05T02:52:45.680Z,50.13
2018-11-05T02:55:13.919Z,51.23
2018-11-05T02:57:42.161Z,49.57
2018-11-05T03:00:13.433Z,49.63
2018-11-05T03:02:42.071Z,50.70
2018-11-05T03:05:12.297Z,48.63
2018-11-05T03:07:40.693Z,49.33
2018-11-05T03:10:10.144Z,48.90
2018-11-05T03:12:38.581Z,48.63
2018-11-05T03:15:07.803Z,48.03
2018-11-05T03:17:36.140Z,47.77
2018-11-05T03:20:05.168Z,48.47
2018-11-05T03:22:33.397Z,49.10
2018-11-05T03:25:01.638Z,48.50
2018-11-05T03:27:29.875Z,50.37
2018-11-05T03:29:58.106Z,50.23
2018-11-05T03:32:26.311Z,48.60
2018-11-05T03:34:54.550Z,48.33
2018-11-05T03:37:22.808Z,48.60
2018-11-05T03:39:51.036Z,47.77
2018-11-05T03:42:19.272Z,49.27
2018-11-05T03:44:47.500Z,48.70
2018-11-05T03:47:15.723Z,48.67
2018-11-05T03:49:43.969Z,46.77
2018-11-05T03:52:12.186Z,47.90
2018-11-05T03:54:40.475Z,46.13
2018-11-05T03:57:08.683Z,47.00
2018-11-05T03:59:36.904Z,46.60
2018-11-05T04:02:05.257Z,47.97
2018-11-05T04:04:33.471Z,47.63
2018-11-05T04:07:01.732Z,47.80
2018-11-05T04:09:29.988Z,47.10
2018-11-05T04:11:58.217Z,46.17
2018-11-05T04:14:26.453Z,47.03
2018-11-05T04:16:54.692Z,45.27
2018-11-05T04:19:22.963Z,47.87
2018-11-05T04:21:51.164Z,47.93
2018-11-05T04:24:19.399Z,47.43
2018-11-05T04:26:47.609Z,49.20
2018-11-05T04:29:15.876Z,46.07
2018-11-05T04:31:44.104Z,45.87
2018-11-05T04:34:12.331Z,45.73
2018-11-05T04:36:41.219Z,44.70
2018-11-05T04:39:11.464Z,44.87
2018-11-05T04:41:39.713Z,44.90
2018-11-05T04:44:08.217Z,45.37
2018-11-05T04:46:36.640Z,44.70
2018-11-05T04:49:04.899Z,44.60
2018-11-05T04:51:33.265Z,44.43
2018-11-05T04:54:01.525Z,42.83
2018-11-05T04:56:29.807Z,43.43
2018-11-05T04:58:58.028Z,44.50
2018-11-05T05:01:26.280Z,44.67
2018-11-05T05:03:54.489Z,43.97
2018-11-05T05:06:22.716Z,44.20
2018-11-05T05:08:50.920Z,44.97
2018-11-05T05:11:19.147Z,45.53
2018-11-05T05:13:47.369Z,44.67
2018-11-05T05:16:15.642Z,44.30
2018-11-05T05:18:43.862Z,42.57
2018-11-05T05:21:12.105Z,45.00
2018-11-05T05:23:40.317Z,44.83
2018-11-05T05:26:08.560Z,43.27
2018-11-05T05:28:36.775Z,43.67
2018-11-05T05:31:05.532Z,44.27
2018-11-05T05:33:33.765Z,44.20
2018-11-05T05:36:02.011Z,43.57
2018-11-05T05:38:30.268Z,45.13
2018-11-05T05:40:58.634Z,42.77
2018-11-05T05:43:26.779Z,42.67
2018-11-05T05:45:55.010Z,44.53
2018-11-05T05:48:23.224Z,44.90
2018-11-05T05:50:51.474Z,44.53
2018-11-05T05:53:19.877Z,44.53
2018-11-05T05:55:48.138Z,43.90
2018-11-05T05:58:16.343Z,44.47
2018-11-05T06:00:45.492Z,44.43
2018-11-05T06:03:13.697Z,44.33
2018-11-05T06:05:41.925Z,43.57
2018-11-05T06:08:10.149Z,45.17
2018-11-05T06:10:38.416Z,44.70
2018-11-05T06:13:06.638Z,44.90
2018-11-05T06:15:34.864Z,45.27
2018-11-05T06:18:03.070Z,45.27
2018-11-05T06:20:31.313Z,44.43
2018-11-05T06:22:59.535Z,44.13
2018-11-05T06:25:27.763Z,43.83
2018-11-05T06:27:55.975Z,45.50
2018-11-05T06:30:24.221Z,44.00
2018-11-05T06:32:52.544Z,45.77
2018-11-05T06:35:21.178Z,44.07
2018-11-05T06:37:49.364Z,46.20
2018-11-05T06:40:18.733Z,44.23
2018-11-05T06:42:47.101Z,43.03
2018-11-05T06:45:16.580Z,45.00
2018-11-05T06:47:46.072Z,44.50
2018-11-05T06:50:16.566Z,43.13
2018-11-05T06:52:45.289Z,42.70
2018-11-05T06:55:14.203Z,44.10
2018-11-05T06:57:42.662Z,42.63
2018-11-05T07:00:13.894Z,42.50
2018-11-05T07:02:42.434Z,42.77
2018-11-05T07:05:10.716Z,44.27
2018-11-05T07:07:39.181Z,41.83
2018-11-05T07:10:08.769Z,41.97
2018-11-05T07:12:37.035Z,41.90
2018-11-05T07:15:06.416Z,41.47
2018-11-05T07:17:34.678Z,42.53
2018-11-05T07:20:02.974Z,41.90
2018-11-05T07:22:31.201Z,43.83
2018-11-05T07:24:59.460Z,41.47
2018-11-05T07:27:27.690Z,43.50
2018-11-05T07:29:56.001Z,42.83
2018-11-05T07:32:24.237Z,43.10
2018-11-05T07:34:52.452Z,42.20
2018-11-05T07:37:20.672Z,42.53
2018-11-05T07:39:48.905Z,41.77
2018-11-05T07:42:17.163Z,41.60
2018-11-05T07:44:45.388Z,41.80
2018-11-05T07:47:13.641Z,39.57
2018-11-05T07:49:41.880Z,42.13
2018-11-05T07:52:10.109Z,39.30
2018-11-05T07:54:38.324Z,40.40
2018-11-05T07:57:06.684Z,40.70
2018-11-05T07:59:34.896Z,40.10
2018-11-05T08:02:03.119Z,41.00
2018-11-05T08:04:31.340Z,41.77
2018-11-05T08:06:59.644Z,40.47
2018-11-05T08:09:27.868Z,41.53
2018-11-05T08:11:56.167Z,42.07
2018-11-05T08:14:24.515Z,40.23
2018-11-05T08:16:52.624Z,41.57
2018-11-05T08:19:20.832Z,41.63
2018-11-05T08:21:49.059Z,41.13
2018-11-05T08:24:17.268Z,40.90
2018-11-05T08:26:45.507Z,40.97
2018-11-05T08:29:13.716Z,40.63
2018-11-05T08:31:41.944Z,41.20
2018-11-05T08:34:10.211Z,41.27
2018-11-05T08:36:38.449Z,41.00
2018-11-05T08:39:09.396Z,40.83
2018-11-05T08:41:37.644Z,40.30
2018-11-05T08:44:06.459Z,40.27
2018-11-05T08:46:34.683Z,39.17
2018-11-05T08:49:02.923Z,41.33
2018-11-05T08:51:31.399Z,39.13
2018-11-05T08:53:59.474Z,41.20
2018-11-05T08:56:27.681Z,39.73
2018-11-05T08:58:55.991Z,39.73
2018-11-05T09:01:28.478Z,40.57
2018-11-05T09:03:56.709Z,39.37
2018-11-05T09:06:24.975Z,40.23
2018-11-05T09:08:53.973Z,41.47
2018-11-05T09:11:22.501Z,39.70
2018-11-05T09:13:50.440Z,38.33
2018-11-05T09:16:18.707Z,39.67
2018-11-05T09:18:46.887Z,40.20
2018-11-05T09:21:15.083Z,39.43
2018-11-05T09:23:43.329Z,40.07
2018-11-05T09:26:11.556Z,39.30
2018-11-05T09:28:39.810Z,40.53
2018-11-05T09:31:08.036Z,38.63
2018-11-05T09:33:36.252Z,39.63
2018-11-05T09:36:04.457Z,39.27
2018-11-05T09:38:32.681Z,38.93
2018-11-05T09:41:00.904Z,40.53
2018-11-05T09:43:29.136Z,39.87
2018-11-05T09:45:57.358Z,37.50
2018-11-05T09:48:25.612Z,39.33
2018-11-05T09:50:53.833Z,37.20
2018-11-05T09:53:22.084Z,36.37
2018-11-05T09:55:50.316Z,35.97
2018-11-05T09:58:18.551Z,36.80
2018-11-05T10:00:46.760Z,35.70
2018-11-05T10:03:16.049Z,35.07
2018-11-05T10:05:44.198Z,34.87
2018-11-05T10:08:12.956Z,35.67
2018-11-05T10:10:41.187Z,33.97
2018-11-05T10:13:09.452Z,34.47
2018-11-05T10:15:37.668Z,34.70
2018-11-05T10:18:06.375Z,34.03
2018-11-05T10:20:34.588Z,33.50
2018-11-05T10:23:02.803Z,34.03
2018-11-05T10:25:31.057Z,34.57
2018-11-05T10:28:02.828Z,32.93
2018-11-05T10:30:31.179Z,33.73
2018-11-05T10:32:59.434Z,33.50
2018-11-05T10:35:33.009Z,35.27
2018-11-05T10:38:01.240Z,33.70
2018-11-05T10:40:29.551Z,33.50
2018-11-05T10:42:57.760Z,33.67
2018-11-05T10:45:26.008Z,32.20
2018-11-05T10:47:54.236Z,32.60
2018-11-05T10:50:23.368Z,32.60
2018-11-05T10:52:52.084Z,31.87
2018-11-05T10:55:20.428Z,31.73
2018-11-05T10:57:48.740Z,33.23
2018-11-05T11:00:23.631Z,31.17
2018-11-05T11:02:57.301Z,31.50
2018-11-05T11:05:26.279Z,31.87
2018-11-05T11:07:55.661Z,30.87
2018-11-05T11:10:24.525Z,30.10
2018-11-05T11:12:52.757Z,29.57
2018-11-05T11:15:21.212Z,30.07
2018-11-05T11:17:49.335Z,31.07
2018-11-05T11:20:17.569Z,30.17
2018-11-05T11:22:45.781Z,31.23
2018-11-05T11:25:14.020Z,32.27
2018-11-05T11:27:42.261Z,31.77
2018-11-05T11:30:12.045Z,30.20
2018-11-05T11:32:40.613Z,30.27
2018-11-05T11:35:09.320Z,29.90
2018-11-05T11:37:37.812Z,29.67
2018-11-05T11:40:09.872Z,29.47
2018-11-05T11:42:38.932Z,29.90
2018-11-05T11:45:07.936Z,28.87
2018-11-05T11:47:36.184Z,28.53
2018-11-05T11:50:05.647Z,28.53
2018-11-05T11:52:33.912Z,29.67
2018-11-05T11:55:02.202Z,27.40
2018-11-05T11:57:30.457Z,29.27
2018-11-05T11:59:58.742Z,28.87
2018-11-05T12:02:26.984Z,29.00
2018-11-05T12:04:55.193Z,27.60
2018-11-05T12:07:23.409Z,27.83
2018-11-05T12:09:51.676Z,27.47
2018-11-05T12:12:19.908Z,28.83
2018-11-05T12:14:48.224Z,28.63
2018-11-05T12:17:16.372Z,26.83
2018-11-05T12:19:44.643Z,28.37
2018-11-05T12:22:12.878Z,27.53
2018-11-05T12:24:41.123Z,27.50
2018-11-05T12:27:09.377Z,28.23
2018-11-05T12:29:37.601Z,27.53
2018-11-05T12:32:06.061Z,26.93
2018-11-05T12:34:34.337Z,26.70
2018-11-05T12:37:02.559Z,27.17
2018-11-05T12:39:30.821Z,27.13
2018-11-05T12:41:59.077Z,27.53
2018-11-05T12:44:27.329Z,27.63
2018-11-05T12:46:55.568Z,27.17
2018-11-05T12:49:23.797Z,25.93
2018-11-05T12:51:52.025Z,27.27
2018-11-05T12:54:20.232Z,26.93
2018-11-05T12:56:48.488Z,26.33
2018-11-05T12:59:16.700Z,28.03
2018-11-05T13:01:44.943Z,25.13
2018-11-05T13:04:13.289Z,26.47
2018-11-05T13:06:41.494Z,25.33
2018-11-05T13:09:10.075Z,26.90
2018-11-05T13:11:38.307Z,25.60
2018-11-05T13:14:06.529Z,27.43
2018-11-05T13:16:34.796Z,26.23
2018-11-05T13:19:03.009Z,27.40
2018-11-05T13:21:31.239Z,26.37
2018-11-05T13:23:59.448Z,26.13
2018-11-05T13:26:27.680Z,27.20
2018-11-05T13:28:55.923Z,25.50
2018-11-05T13:31:24.159Z,26.77
2018-11-05T13:33:52.385Z,27.83
2018-11-05T13:36:20.644Z,25.77
2018-11-05T13:38:48.988Z,26.10
2018-11-05T13:41:17.132Z,25.77
2018-11-05T13:43:45.348Z,26.40
2018-11-05T13:46:13.927Z,25.47
2018-11-05T13:48:42.372Z,26.00
2018-11-05T13:51:10.213Z,25.53
2018-11-05T13:53:38.441Z,25.47
2018-11-05T13:56:06.718Z,24.63
2018-11-05T13:58:35.059Z,27.77
2018-11-05T14:01:03.256Z,25.37
2018-11-05T14:03:31.520Z,26.50
2018-11-05T14:05:59.736Z,26.43
2018-11-05T14:08:28.028Z,25.77
2018-11-05T14:10:56.274Z,27.40
2018-11-05T14:13:24.492Z,25.43
2018-11-05T14:15:52.788Z,25.70
2018-11-05T14:18:21.242Z,26.60
2018-11-05T14:20:49.329Z,27.07
2018-11-05T14:23:17.558Z,26.00
2018-11-05T14:25:45.902Z,25.60
2018-11-05T14:28:14.210Z,26.60
2018-11-05T14:30:42.312Z,25.37
2018-11-05T14:33:10.532Z,26.20
2018-11-05T14:35:38.748Z,24.77
2018-11-05T14:38:07.064Z,24.53
2018-11-05T14:40:35.258Z,25.13
2018-11-05T14:43:03.537Z,23.57
2018-11-05T14:45:31.732Z,23.70
2018-11-05T14:47:59.975Z,24.93
2018-11-05T14:50:28.213Z,23.47
2018-11-05T14:52:56.517Z,22.90
2018-11-05T14:55:24.720Z,22.83
2018-11-05T14:57:52.956Z,22.17
2018-11-05T15:00:24.004Z,21.40
2018-11-05T15:02:52.273Z,22.23
2018-11-05T15:05:20.509Z,21.03
2018-11-05T15:07:49.644Z,21.53
2018-11-05T15:10:19.344Z,21.00
2018-11-05T15:12:47.698Z,21.57
2018-11-05T15:15:16.605Z,23.30
2018-11-05T15:17:45.203Z,20.67
2018-11-05T15:20:15.796Z,21.60
2018-11-05T15:22:43.766Z,21.37
2018-11-05T15:25:12.588Z,20.30
2018-11-05T15:27:41.051Z,20.80
2018-11-05T15:30:11.659Z,20.17
2018-11-05T15:32:40.655Z,21.07
2018-11-05T15:35:08.960Z,20.10
2018-11-05T15:37:37.775Z,20.40
2018-11-05T15:40:06.800Z,20.10
2018-11-05T15:42:35.060Z,21.20
2018-11-05T15:45:03.308Z,20.63
2018-11-05T15:47:31.516Z,21.37
2018-11-05T15:49:59.782Z,21.97
2018-11-05T15:52:28.393Z,21.27
2018-11-05T15:54:56.260Z,24.23
2018-11-05T15:57:24.522Z,26.00
2018-11-05T15:59:52.790Z,31.13
2018-11-05T16:02:21.011Z,30.30
2018-11-05T16:04:49.296Z,32.00
2018-11-05T16:07:17.524Z,26.73
2018-11-05T16:09:45.759Z,26.70
2018-11-05T16:12:13.997Z,26.03
2018-11-05T16:14:42.260Z,25.43
2018-11-05T16:17:10.454Z,25.13
2018-11-05T16:19:38.689Z,24.73
2018-11-05T16:22:06.964Z,25.83
2018-11-05T16:24:35.258Z,24.57
2018-11-05T16:27:03.419Z,24.53
2018-11-05T16:29:31.628Z,24.57
2018-11-05T16:31:59.926Z,26.93
2018-11-05T16:34:28.142Z,24.97
2018-11-05T16:36:56.365Z,26.80
2018-11-05T16:39:24.601Z,27.23
2018-11-05T16:41:52.933Z,27.20
2018-11-05T16:44:21.113Z,29.10
2018-11-05T16:46:49.357Z,30.73
2018-11-05T16:49:17.573Z,28.47
2018-11-05T16:51:45.810Z,29.33
2018-11-05T16:54:14.069Z,28.40
2018-11-05T16:56:42.308Z,26.93
2018-11-05T16:59:10.565Z,27.33
2018-11-05T17:01:39.207Z,26.60
2018-11-05T17:04:07.040Z,25.80
2018-11-05T17:06:35.295Z,25.77
2018-11-05T17:09:03.664Z,25.33
2018-11-05T17:11:31.953Z,24.93
2018-11-05T17:14:00.193Z,26.37
2018-11-05T17:16:28.418Z,26.73
2018-11-05T17:18:56.655Z,26.27
2018-11-05T17:21:24.892Z,28.60
2018-11-05T17:23:53.120Z,29.33
2018-11-05T17:26:21.470Z,26.83
2018-11-05T17:28:49.607Z,26.77
2018-11-05T17:31:17.812Z,28.43
2018-11-05T17:33:46.159Z,27.47
2018-11-05T17:36:14.327Z,27.60
2018-11-05T17:38:42.700Z,25.40
2018-11-05T17:41:10.936Z,24.73
2018-11-05T17:43:39.199Z,26.30
2018-11-05T17:46:07.413Z,25.43
2018-11-05T17:48:35.656Z,26.60
2018-11-05T17:51:03.899Z,24.97
2018-11-05T17:53:32.130Z,25.53
2018-11-05T17:56:00.335Z,25.80
2018-11-05T17:58:28.592Z,26.30
2018-11-05T18:00:56.804Z,26.03
2018-11-05T18:03:25.080Z,26.17
2018-11-05T18:05:53.349Z,25.53
2018-11-05T18:08:21.671Z,29.13
2018-11-05T18:10:50.057Z,25.97
2018-11-05T18:13:18.286Z,24.80
2018-11-05T18:15:46.549Z,25.20
2018-11-05T18:18:14.782Z,25.67
2018-11-05T18:20:42.985Z,24.13
2018-11-05T18:23:11.213Z,24.17
2018-11-05T18:25:39.448Z,25.30
2018-11-05T18:28:07.672Z,24.27
2018-11-05T18:30:35.888Z,25.53
2018-11-05T18:33:04.129Z,25.07
2018-11-05T18:35:32.345Z,24.63
2018-11-05T18:38:00.625Z,24.37
2018-11-05T18:40:28.852Z,23.57
2018-11-05T18:42:57.177Z,23.80
2018-11-05T18:45:25.409Z,24.90
2018-11-05T18:47:53.620Z,25.70
2018-11-05T18:50:22.131Z,24.20
2018-11-05T18:52:50.488Z,25.50
2018-11-05T18:55:18.755Z,26.27
2018-11-05T18:57:46.972Z,23.80
2018-11-05T19:00:18.632Z,24.27
2018-11-05T19:02:47.155Z,24.43
2018-11-05T19:05:15.474Z,23.97
2018-11-05T19:07:43.692Z,24.03
2018-11-05T19:10:12.265Z,21.80
2018-11-05T19:12:40.499Z,22.10
2018-11-05T19:15:10.057Z,23.17
2018-11-05T19:17:38.272Z,22.00
2018-11-05T19:20:06.863Z,22.43
2018-11-05T19:22:35.205Z,21.00
2018-11-05T19:25:03.463Z,24.17
2018-11-05T19:27:31.659Z,22.47
2018-11-05T19:29:59.885Z,21.43
2018-11-05T19:32:28.094Z,21.70
2018-11-05T19:34:56.333Z,22.47
2018-11-05T19:37:24.555Z,22.43
2018-11-05T19:39:54.673Z,21.07
2018-11-05T19:42:21.183Z,22.00
2018-11-05T19:44:49.320Z,22.60
2018-11-05T19:47:17.568Z,21.93
2018-11-05T19:49:45.880Z,21.07
2018-11-05T19:52:14.059Z,23.10
2018-11-05T19:54:42.290Z,22.20
2018-11-05T19:57:10.511Z,21.97
2018-11-05T19:59:38.733Z,22.13
2018-11-05T20:02:07.743Z,21.97
2018-11-05T20:04:36.019Z,21.27
2018-11-05T20:07:04.176Z,21.40
2018-11-05T20:09:32.408Z,21.90
2018-11-05T20:12:00.649Z,20.53
2018-11-05T20:14:28.889Z,21.17
2018-11-05T20:16:57.194Z,21.13
2018-11-05T20:19:25.368Z,20.57
2018-11-05T20:21:53.572Z,21.87
2018-11-05T20:24:21.836Z,21.30
2018-11-05T20:26:50.060Z,22.33
2018-11-05T20:29:18.325Z,20.37
2018-11-05T20:31:46.647Z,21.60
2018-11-05T20:34:15.762Z,20.10
2018-11-05T20:36:43.750Z,20.43
2018-11-05T20:39:12.216Z,20.30
2018-11-05T20:41:40.583Z,20.77
2018-11-05T20:44:08.797Z,19.97
2018-11-05T20:46:37.071Z,21.60
2018-11-05T20:49:05.305Z,20.90
2018-11-05T20:51:33.519Z,20.17
2018-11-05T20:54:01.745Z,19.80
2018-11-05T20:56:30.000Z,19.97
2018-11-05T20:58:58.196Z,19.87
2018-11-05T21:01:26.476Z,20.40
2018-11-05T21:03:54.693Z,19.30
2018-11-05T21:06:22.939Z,20.10
2018-11-05T21:08:51.143Z,19.70
2018-11-05T21:11:19.372Z,19.03
2018-11-05T21:13:47.587Z,20.40
2018-11-05T21:16:15.911Z,20.30
2018-11-05T21:18:44.123Z,18.60
2018-11-05T21:21:12.460Z,17.97
2018-11-05T21:23:40.671Z,18.80
2018-11-05T21:26:08.924Z,17.53
2018-11-05T21:28:37.144Z,18.93
2018-11-05T21:31:05.377Z,18.40
2018-11-05T21:33:33.599Z,18.70
2018-11-05T21:36:01.838Z,18.27
2018-11-05T21:38:30.048Z,20.40
2018-11-05T21:40:58.297Z,17.27
2018-11-05T21:43:26.513Z,18.67
2018-11-05T21:45:54.749Z,18.27
2018-11-05T21:48:22.956Z,19.47
2018-11-05T21:50:51.203Z,20.53
2018-11-05T21:53:19.458Z,20.23
2018-11-05T21:55:47.657Z,20.53
2018-11-05T21:58:15.898Z,20.00
2018-11-05T22:00:44.108Z,19.27
2018-11-05T22:03:17.852Z,19.70
2018-11-05T22:05:46.088Z,19.10
2018-11-05T22:08:14.565Z,19.23
2018-11-05T22:10:42.803Z,18.53
2018-11-05T22:13:11.039Z,17.17
2018-11-05T22:15:44.657Z,16.70
2018-11-05T22:18:13.274Z,16.40
2018-11-05T22:20:41.530Z,17.30
2018-11-05T22:23:09.756Z,18.73
2018-11-05T22:25:38.007Z,16.73
2018-11-05T22:28:06.508Z,16.00
2018-11-05T22:30:34.748Z,16.13
2018-11-05T22:33:03.117Z,15.87
2018-11-05T22:35:31.425Z,15.27
2018-11-05T22:37:59.745Z,15.87
2018-11-05T22:40:27.993Z,14.90
2018-11-05T22:42:56.216Z,15.00
2018-11-05T22:45:24.418Z,15.23
2018-11-05T22:47:52.734Z,17.40
2018-11-05T22:50:20.939Z,18.80
2018-11-05T22:52:49.193Z,17.90
2018-11-05T22:55:17.447Z,18.33
2018-11-05T22:57:45.681Z,26.67
2018-11-05T23:00:20.463Z,29.47
2018-11-05T23:02:54.137Z,27.10
2018-11-05T23:05:22.546Z,23.73
2018-11-05T23:07:51.699Z,22.57
2018-11-05T23:10:19.942Z,21.47
2018-11-05T23:12:48.183Z,19.43
2018-11-05T23:15:16.716Z,16.40
2018-11-05T23:17:44.958Z,16.40
2018-11-05T23:20:13.178Z,16.53
2018-11-05T23:22:42.076Z,15.23
2018-11-05T23:25:10.318Z,14.53
2018-11-05T23:27:38.599Z,14.60
2018-11-05T23:30:08.885Z,14.10
2018-11-05T23:32:37.464Z,14.93
2018-11-05T23:35:06.267Z,14.33
2018-11-05T23:37:34.543Z,14.57
2018-11-05T23:40:02.799Z,15.10
2018-11-05T23:42:31.036Z,14.40
2018-11-05T23:44:59.243Z,14.43
2018-11-05T23:47:28.195Z,13.93
2018-11-05T23:49:56.879Z,15.50
2018-11-05T23:52:25.630Z,14.40
2018-11-05T23:54:54.032Z,14.53
2018-11-05T23:57:22.684Z,14.43
2018-11-05T23:59:50.949Z,13.93
